sensor_id;sensor_type;location;lat;lon;timestamp;pressure;altitude;pressure_sealevel;temperature;humidity
43480;BME280;29067;35.492;-97.520;2024-03-23T00:53:17;97387.02;;;12.07;45.17
43480;BME280;29067;35.492;-97.520;2024-03-23T00:55:45;97390.50;;;12.10;45.35
43480;BME280;29067;35.492;-97.520;2024-03-23T00:58:13;97398.69;;;13.23;45.21
43480;BME280;29067;35.492;-97.520;2024-03-23T01:00:41;97397.16;;;12.32;44.55
43480;BME280;29067;35.492;-97.520;2024-03-23T01:03:09;97407.95;;;12.56;44.73
43480;BME280;29067;35.492;-97.520;2024-03-23T01:05:37;97410.97;;;12.29;45.49
43480;BME280;29067;35.492;-97.520;2024-03-23T01:08:06;97410.12;;;13.17;43.58
43480;BME280;29067;35.492;-97.520;2024-03-23T01:10:34;97411.55;;;13.07;43.71
43480;BME280;29067;35.492;-97.520;2024-03-23T01:13:02;97413.76;;;12.56;44.83
43480;BME280;29067;35.492;-97.520;2024-03-23T01:15:30;97413.68;;;10.90;45.49
43480;BME280;29067;35.492;-97.520;2024-03-23T01:17:58;97411.93;;;11.37;44.32
43480;BME280;29067;35.492;-97.520;2024-03-23T01:20:26;97409.60;;;12.15;44.17
43480;BME280;29067;35.492;-97.520;2024-03-23T01:22:53;97415.14;;;11.23;44.07
43480;BME280;29067;35.492;-97.520;2024-03-23T01:25:21;97421.37;;;11.68;43.85
43480;BME280;29067;35.492;-97.520;2024-03-23T01:27:50;97423.90;;;11.68;43.27
43480;BME280;29067;35.492;-97.520;2024-03-23T01:30:17;97425.93;;;11.99;43.19
43480;BME280;29067;35.492;-97.520;2024-03-23T01:32:45;97433.69;;;11.09;43.82
43480;BME280;29067;35.492;-97.520;2024-03-23T01:35:13;97437.81;;;10.19;44.16
43480;BME280;29067;35.492;-97.520;2024-03-23T01:37:41;97437.18;;;11.94;43.31
43480;BME280;29067;35.492;-97.520;2024-03-23T01:40:11;97441.31;;;10.38;44.07
43480;BME280;29067;35.492;-97.520;2024-03-23T01:42:40;97445.12;;;11.28;43.35
43480;BME280;29067;35.492;-97.520;2024-03-23T01:45:09;97446.65;;;11.42;43.94
43480;BME280;29067;35.492;-97.520;2024-03-23T01:47:37;97450.27;;;11.00;43.68
43480;BME280;29067;35.492;-97.520;2024-03-23T01:50:10;97460.19;;;11.09;44.44
43480;BME280;29067;35.492;-97.520;2024-03-23T01:52:38;97462.51;;;10.52;44.37
43480;BME280;29067;35.492;-97.520;2024-03-23T01:55:08;97466.18;;;10.65;44.86
43480;BME280;29067;35.492;-97.520;2024-03-23T01:57:37;97464.91;;;11.00;43.87
43480;BME280;29067;35.492;-97.520;2024-03-23T02:00:05;97465.37;;;10.79;44.20
43480;BME280;29067;35.492;-97.520;2024-03-23T02:02:34;97474.24;;;9.79;45.47
43480;BME280;29067;35.492;-97.520;2024-03-23T02:05:02;97477.67;;;10.09;44.74
43480;BME280;29067;35.492;-97.520;2024-03-23T02:07:30;97487.80;;;9.85;44.98
43480;BME280;29067;35.492;-97.520;2024-03-23T02:09:57;97494.53;;;11.17;44.93
43480;BME280;29067;35.492;-97.520;2024-03-23T02:12:26;97499.86;;;10.66;44.79
43480;BME280;29067;35.492;-97.520;2024-03-23T02:14:55;97506.31;;;10.06;44.80
43480;BME280;29067;35.492;-97.520;2024-03-23T02:17:22;97505.18;;;10.70;44.35
43480;BME280;29067;35.492;-97.520;2024-03-23T02:19:51;97515.89;;;10.66;44.68
43480;BME280;29067;35.492;-97.520;2024-03-23T02:22:19;97520.42;;;9.99;45.17
43480;BME280;29067;35.492;-97.520;2024-03-23T02:24:47;97527.09;;;10.06;45.27
43480;BME280;29067;35.492;-97.520;2024-03-23T02:27:15;97529.50;;;9.96;44.54
43480;BME280;29067;35.492;-97.520;2024-03-23T02:29:42;97534.03;;;10.45;44.37
43480;BME280;29067;35.492;-97.520;2024-03-23T02:32:11;97541.74;;;10.35;45.22
43480;BME280;29067;35.492;-97.520;2024-03-23T02:34:39;97547.99;;;10.62;44.04
43480;BME280;29067;35.492;-97.520;2024-03-23T02:37:11;97547.97;;;11.42;43.59
43480;BME280;29067;35.492;-97.520;2024-03-23T02:39:39;97559.04;;;10.27;44.34
43480;BME280;29067;35.492;-97.520;2024-03-23T02:42:13;97568.16;;;7.98;46.14
43480;BME280;29067;35.492;-97.520;2024-03-23T02:44:41;97575.82;;;9.80;46.21
43480;BME280;29067;35.492;-97.520;2024-03-23T02:47:09;97578.38;;;9.42;46.03
43480;BME280;29067;35.492;-97.520;2024-03-23T02:49:37;97584.82;;;8.60;46.95
43480;BME280;29067;35.492;-97.520;2024-03-23T02:52:05;97590.17;;;10.32;45.55
43480;BME280;29067;35.492;-97.520;2024-03-23T02:54:33;97594.25;;;9.50;45.00
43480;BME280;29067;35.492;-97.520;2024-03-23T02:57:01;97597.35;;;9.74;45.45
43480;BME280;29067;35.492;-97.520;2024-03-23T02:59:29;97596.65;;;9.92;45.19
43480;BME280;29067;35.492;-97.520;2024-03-23T03:01:57;97600.63;;;8.86;45.06
43480;BME280;29067;35.492;-97.520;2024-03-23T03:04:25;97606.03;;;8.80;45.05
43480;BME280;29067;35.492;-97.520;2024-03-23T03:06:53;97608.41;;;9.00;45.68
43480;BME280;29067;35.492;-97.520;2024-03-23T03:09:21;97613.49;;;8.73;46.13
43480;BME280;29067;35.492;-97.520;2024-03-23T03:11:49;97617.41;;;8.10;46.84
43480;BME280;29067;35.492;-97.520;2024-03-23T03:14:23;97617.39;;;8.89;45.99
43480;BME280;29067;35.492;-97.520;2024-03-23T03:16:52;97627.97;;;8.37;45.81
43480;BME280;29067;35.492;-97.520;2024-03-23T03:19:20;97632.95;;;8.35;47.12
43480;BME280;29067;35.492;-97.520;2024-03-23T03:21:48;97639.61;;;8.81;47.27
43480;BME280;29067;35.492;-97.520;2024-03-23T03:24:18;97644.67;;;8.98;45.75
43480;BME280;29067;35.492;-97.520;2024-03-23T03:26:46;97647.91;;;8.90;46.01
43480;BME280;29067;35.492;-97.520;2024-03-23T03:29:14;97647.87;;;8.58;47.08
43480;BME280;29067;35.492;-97.520;2024-03-23T03:31:43;97650.37;;;8.18;46.87
43480;BME280;29067;35.492;-97.520;2024-03-23T03:34:11;97652.50;;;8.22;47.80
43480;BME280;29067;35.492;-97.520;2024-03-23T03:36:39;97654.03;;;8.33;47.00
43480;BME280;29067;35.492;-97.520;2024-03-23T03:39:07;97659.17;;;8.08;47.35
43480;BME280;29067;35.492;-97.520;2024-03-23T03:41:36;97664.76;;;7.27;47.52
43480;BME280;29067;35.492;-97.520;2024-03-23T03:44:05;97669.16;;;7.59;47.78
43480;BME280;29067;35.492;-97.520;2024-03-23T03:46:33;97674.25;;;7.38;47.46
43480;BME280;29067;35.492;-97.520;2024-03-23T03:49:01;97676.22;;;7.72;47.47
43480;BME280;29067;35.492;-97.520;2024-03-23T03:51:29;97681.83;;;7.44;48.28
43480;BME280;29067;35.492;-97.520;2024-03-23T03:53:57;97682.72;;;8.12;47.70
43480;BME280;29067;35.492;-97.520;2024-03-23T03:56:26;97685.33;;;7.99;46.87
43480;BME280;29067;35.492;-97.520;2024-03-23T03:58:54;97691.29;;;7.79;47.07
43480;BME280;29067;35.492;-97.520;2024-03-23T04:01:22;97702.35;;;7.01;48.55
43480;BME280;29067;35.492;-97.520;2024-03-23T04:03:50;97703.02;;;7.56;48.32
43480;BME280;29067;35.492;-97.520;2024-03-23T04:06:20;97703.10;;;8.13;47.90
43480;BME280;29067;35.492;-97.520;2024-03-23T04:08:48;97710.73;;;7.31;47.94
43480;BME280;29067;35.492;-97.520;2024-03-23T04:11:16;97713.08;;;6.65;50.07
43480;BME280;29067;35.492;-97.520;2024-03-23T04:13:44;97712.70;;;7.06;48.18
43480;BME280;29067;35.492;-97.520;2024-03-23T04:16:12;97717.96;;;5.90;48.79
43480;BME280;29067;35.492;-97.520;2024-03-23T04:18:40;97724.50;;;6.02;49.64
43480;BME280;29067;35.492;-97.520;2024-03-23T04:21:08;97728.28;;;6.56;48.63
43480;BME280;29067;35.492;-97.520;2024-03-23T04:23:36;97730.35;;;5.99;49.77
43480;BME280;29067;35.492;-97.520;2024-03-23T04:26:05;97736.29;;;6.07;50.14
43480;BME280;29067;35.492;-97.520;2024-03-23T04:28:32;97743.55;;;6.14;50.06
43480;BME280;29067;35.492;-97.520;2024-03-23T04:31:04;97740.98;;;6.31;48.43
43480;BME280;29067;35.492;-97.520;2024-03-23T04:33:33;97745.88;;;5.76;49.30
43480;BME280;29067;35.492;-97.520;2024-03-23T04:36:00;97745.17;;;6.49;47.85
43480;BME280;29067;35.492;-97.520;2024-03-23T04:38:28;97750.13;;;5.50;48.96
43480;BME280;29067;35.492;-97.520;2024-03-23T04:40:56;97749.73;;;5.60;49.25
43480;BME280;29067;35.492;-97.520;2024-03-23T04:43:25;97750.98;;;6.34;48.61
43480;BME280;29067;35.492;-97.520;2024-03-23T04:45:59;97745.08;;;6.32;48.23
43480;BME280;29067;35.492;-97.520;2024-03-23T04:48:27;97751.90;;;5.69;48.74
43480;BME280;29067;35.492;-97.520;2024-03-23T04:50:57;97746.15;;;6.62;48.45
43480;BME280;29067;35.492;-97.520;2024-03-23T04:53:25;97743.89;;;6.11;48.29
43480;BME280;29067;35.492;-97.520;2024-03-23T04:55:54;97746.89;;;5.52;48.85
43480;BME280;29067;35.492;-97.520;2024-03-23T04:58:22;97748.05;;;6.02;49.57
43480;BME280;29067;35.492;-97.520;2024-03-23T05:00:54;97748.57;;;6.14;49.12
43480;BME280;29067;35.492;-97.520;2024-03-23T05:03:22;97751.03;;;5.98;50.26
43480;BME280;29067;35.492;-97.520;2024-03-23T05:05:50;97750.76;;;6.36;49.65
43480;BME280;29067;35.492;-97.520;2024-03-23T05:08:18;97752.55;;;5.97;49.33
43480;BME280;29067;35.492;-97.520;2024-03-23T05:10:45;97750.56;;;5.93;49.79
43480;BME280;29067;35.492;-97.520;2024-03-23T05:13:13;97753.70;;;7.02;48.91
43480;BME280;29067;35.492;-97.520;2024-03-23T05:15:41;97757.43;;;5.30;50.67
43480;BME280;29067;35.492;-97.520;2024-03-23T05:18:09;97755.62;;;5.69;49.12
43480;BME280;29067;35.492;-97.520;2024-03-23T05:20:37;97758.19;;;5.01;50.85
43480;BME280;29067;35.492;-97.520;2024-03-23T05:23:05;97759.33;;;5.57;49.86
43480;BME280;29067;35.492;-97.520;2024-03-23T05:25:32;97752.73;;;4.98;52.10
43480;BME280;29067;35.492;-97.520;2024-03-23T05:28:00;97749.16;;;4.43;51.66
43480;BME280;29067;35.492;-97.520;2024-03-23T05:30:28;97748.55;;;5.71;50.29
43480;BME280;29067;35.492;-97.520;2024-03-23T05:32:56;97754.98;;;5.36;50.11
43480;BME280;29067;35.492;-97.520;2024-03-23T05:35:23;97764.17;;;5.13;51.11
43480;BME280;29067;35.492;-97.520;2024-03-23T05:37:51;97763.64;;;5.21;51.64
43480;BME280;29067;35.492;-97.520;2024-03-23T05:40:19;97758.76;;;4.25;52.17
43480;BME280;29067;35.492;-97.520;2024-03-23T05:42:47;97759.52;;;4.66;52.01
43480;BME280;29067;35.492;-97.520;2024-03-23T05:45:15;97765.99;;;3.31;53.96
43480;BME280;29067;35.492;-97.520;2024-03-23T05:47:43;97766.86;;;4.70;52.48
43480;BME280;29067;35.492;-97.520;2024-03-23T05:50:12;97775.32;;;3.68;52.23
43480;BME280;29067;35.492;-97.520;2024-03-23T05:52:40;97771.37;;;4.83;51.66
43480;BME280;29067;35.492;-97.520;2024-03-23T05:55:08;97773.54;;;3.57;51.87
43480;BME280;29067;35.492;-97.520;2024-03-23T05:57:36;97771.05;;;3.92;51.79
43480;BME280;29067;35.492;-97.520;2024-03-23T06:00:05;97773.95;;;3.53;51.92
43480;BME280;29067;35.492;-97.520;2024-03-23T06:02:33;97777.17;;;3.10;52.99
43480;BME280;29067;35.492;-97.520;2024-03-23T06:05:01;97773.69;;;4.23;51.40
43480;BME280;29067;35.492;-97.520;2024-03-23T06:07:29;97781.10;;;4.03;52.14
43480;BME280;29067;35.492;-97.520;2024-03-23T06:09:57;97786.53;;;4.32;52.80
43480;BME280;29067;35.492;-97.520;2024-03-23T06:12:25;97787.85;;;3.08;54.28
43480;BME280;29067;35.492;-97.520;2024-03-23T06:14:53;97797.04;;;3.47;53.78
43480;BME280;29067;35.492;-97.520;2024-03-23T06:17:20;97803.99;;;3.56;53.34
43480;BME280;29067;35.492;-97.520;2024-03-23T06:19:48;97809.34;;;3.19;54.19
43480;BME280;29067;35.492;-97.520;2024-03-23T06:22:16;97814.30;;;3.69;54.11
43480;BME280;29067;35.492;-97.520;2024-03-23T06:24:45;97817.40;;;3.85;53.26
43480;BME280;29067;35.492;-97.520;2024-03-23T06:27:13;97826.12;;;3.40;53.37
43480;BME280;29067;35.492;-97.520;2024-03-23T06:29:41;97829.52;;;3.43;53.74
43480;BME280;29067;35.492;-97.520;2024-03-23T06:32:09;97827.40;;;3.79;53.67
43480;BME280;29067;35.492;-97.520;2024-03-23T06:34:37;97831.43;;;2.30;53.99
43480;BME280;29067;35.492;-97.520;2024-03-23T06:37:05;97829.81;;;3.82;53.31
43480;BME280;29067;35.492;-97.520;2024-03-23T06:39:33;97834.49;;;3.05;52.71
43480;BME280;29067;35.492;-97.520;2024-03-23T06:42:01;97840.71;;;3.94;52.49
43480;BME280;29067;35.492;-97.520;2024-03-23T06:44:29;97845.53;;;4.15;52.04
43480;BME280;29067;35.492;-97.520;2024-03-23T06:46:57;97851.81;;;3.30;53.80
43480;BME280;29067;35.492;-97.520;2024-03-23T06:49:26;97856.37;;;3.30;54.34
43480;BME280;29067;35.492;-97.520;2024-03-23T06:51:54;97852.20;;;3.49;53.90
43480;BME280;29067;35.492;-97.520;2024-03-23T06:54:24;97851.55;;;3.40;55.00
43480;BME280;29067;35.492;-97.520;2024-03-23T06:56:52;97851.87;;;3.40;54.60
43480;BME280;29067;35.492;-97.520;2024-03-23T06:59:20;97861.69;;;3.40;55.26
43480;BME280;29067;35.492;-97.520;2024-03-23T07:01:48;97867.99;;;2.47;56.10
43480;BME280;29067;35.492;-97.520;2024-03-23T07:04:16;97869.24;;;3.39;56.03
43480;BME280;29067;35.492;-97.520;2024-03-23T07:06:44;97871.34;;;2.49;55.46
43480;BME280;29067;35.492;-97.520;2024-03-23T07:09:12;97871.28;;;1.91;57.31
43480;BME280;29067;35.492;-97.520;2024-03-23T07:11:40;97872.40;;;2.59;56.49
43480;BME280;29067;35.492;-97.520;2024-03-23T07:14:08;97871.81;;;2.52;56.82
43480;BME280;29067;35.492;-97.520;2024-03-23T07:16:37;97868.63;;;2.02;56.04
43480;BME280;29067;35.492;-97.520;2024-03-23T07:19:05;97868.62;;;2.83;57.15
43480;BME280;29067;35.492;-97.520;2024-03-23T07:21:32;97864.32;;;1.95;56.15
43480;BME280;29067;35.492;-97.520;2024-03-23T07:24:01;97866.80;;;2.84;55.47
43480;BME280;29067;35.492;-97.520;2024-03-23T07:26:29;97870.88;;;2.36;56.83
43480;BME280;29067;35.492;-97.520;2024-03-23T07:28:57;97866.74;;;1.46;58.31
43480;BME280;29067;35.492;-97.520;2024-03-23T07:31:25;97867.26;;;2.30;57.83
43480;BME280;29067;35.492;-97.520;2024-03-23T07:33:53;97866.69;;;1.71;56.98
43480;BME280;29067;35.492;-97.520;2024-03-23T07:36:21;97868.80;;;1.74;58.65
43480;BME280;29067;35.492;-97.520;2024-03-23T07:38:49;97872.80;;;1.20;58.92
43480;BME280;29067;35.492;-97.520;2024-03-23T07:41:18;97876.05;;;2.22;57.85
43480;BME280;29067;35.492;-97.520;2024-03-23T07:43:47;97880.73;;;1.68;57.80
43480;BME280;29067;35.492;-97.520;2024-03-23T07:46:16;97883.73;;;1.37;58.59
43480;BME280;29067;35.492;-97.520;2024-03-23T07:48:43;97878.35;;;1.01;58.69
43480;BME280;29067;35.492;-97.520;2024-03-23T07:51:17;97876.26;;;1.92;58.07
43480;BME280;29067;35.492;-97.520;2024-03-23T07:53:45;97879.48;;;1.10;58.71
43480;BME280;29067;35.492;-97.520;2024-03-23T07:56:13;97870.39;;;1.79;58.96
43480;BME280;29067;35.492;-97.520;2024-03-23T07:58:42;97871.52;;;1.82;58.63
43480;BME280;29067;35.492;-97.520;2024-03-23T08:01:11;97871.20;;;1.05;59.13
43480;BME280;29067;35.492;-97.520;2024-03-23T08:03:41;97872.66;;;1.54;59.86
43480;BME280;29067;35.492;-97.520;2024-03-23T08:06:10;97868.58;;;1.66;57.60
43480;BME280;29067;35.492;-97.520;2024-03-23T08:08:39;97869.17;;;1.53;57.66
43480;BME280;29067;35.492;-97.520;2024-03-23T08:11:07;97876.90;;;1.76;58.11
43480;BME280;29067;35.492;-97.520;2024-03-23T08:13:38;97880.78;;;0.89;59.57
43480;BME280;29067;35.492;-97.520;2024-03-23T08:16:07;97887.04;;;1.14;60.05
43480;BME280;29067;35.492;-97.520;2024-03-23T08:18:35;97886.45;;;1.77;59.88
43480;BME280;29067;35.492;-97.520;2024-03-23T08:21:04;97882.19;;;2.23;55.81
43480;BME280;29067;35.492;-97.520;2024-03-23T08:23:34;97882.35;;;2.98;56.10
43480;BME280;29067;35.492;-97.520;2024-03-23T08:26:03;97880.81;;;1.20;58.11
43480;BME280;29067;35.492;-97.520;2024-03-23T08:28:32;97877.90;;;1.36;56.62
43480;BME280;29067;35.492;-97.520;2024-03-23T08:31:02;97878.46;;;1.24;57.71
43480;BME280;29067;35.492;-97.520;2024-03-23T08:33:30;97871.10;;;1.75;58.24
43480;BME280;29067;35.492;-97.520;2024-03-23T08:35:59;97870.76;;;1.70;57.06
43480;BME280;29067;35.492;-97.520;2024-03-23T08:38:29;97870.32;;;1.09;58.23
43480;BME280;29067;35.492;-97.520;2024-03-23T08:40:58;97875.09;;;0.06;59.77
43480;BME280;29067;35.492;-97.520;2024-03-23T08:43:26;97875.77;;;0.62;59.87
43480;BME280;29067;35.492;-97.520;2024-03-23T08:46:02;97875.03;;;0.47;58.08
43480;BME280;29067;35.492;-97.520;2024-03-23T08:48:31;97872.50;;;1.73;55.96
43480;BME280;29067;35.492;-97.520;2024-03-23T08:51:01;97873.34;;;0.95;57.77
43480;BME280;29067;35.492;-97.520;2024-03-23T08:53:31;97867.86;;;1.36;57.74
43480;BME280;29067;35.492;-97.520;2024-03-23T08:55:59;97863.35;;;0.58;58.33
43480;BME280;29067;35.492;-97.520;2024-03-23T08:58:29;97857.43;;;1.04;58.47
43480;BME280;29067;35.492;-97.520;2024-03-23T09:01:04;97842.97;;;1.50;57.66
43480;BME280;29067;35.492;-97.520;2024-03-23T09:03:32;97833.50;;;0.69;59.67
43480;BME280;29067;35.492;-97.520;2024-03-23T09:06:00;97819.90;;;0.11;59.30
43480;BME280;29067;35.492;-97.520;2024-03-23T09:08:29;97818.04;;;0.03;60.90
43480;BME280;29067;35.492;-97.520;2024-03-23T09:10:56;97811.12;;;0.58;60.36
43480;BME280;29067;35.492;-97.520;2024-03-23T09:13:25;97811.57;;;0.76;59.17
43480;BME280;29067;35.492;-97.520;2024-03-23T09:15:53;97814.06;;;-0.04;61.48
43480;BME280;29067;35.492;-97.520;2024-03-23T09:18:20;97813.35;;;0.23;61.32
43480;BME280;29067;35.492;-97.520;2024-03-23T09:20:48;97818.56;;;0.10;61.09
43480;BME280;29067;35.492;-97.520;2024-03-23T09:23:16;97820.56;;;0.14;60.35
43480;BME280;29067;35.492;-97.520;2024-03-23T09:25:44;97825.03;;;0.46;61.68
43480;BME280;29067;35.492;-97.520;2024-03-23T09:28:12;97825.54;;;0.47;59.90
43480;BME280;29067;35.492;-97.520;2024-03-23T09:30:40;97829.46;;;1.32;59.14
43480;BME280;29067;35.492;-97.520;2024-03-23T09:33:09;97833.98;;;0.81;59.97
43480;BME280;29067;35.492;-97.520;2024-03-23T09:35:38;97834.48;;;1.09;58.73
43480;BME280;29067;35.492;-97.520;2024-03-23T09:38:06;97832.48;;;0.29;59.93
43480;BME280;29067;35.492;-97.520;2024-03-23T09:40:35;97829.42;;;0.74;58.72
43480;BME280;29067;35.492;-97.520;2024-03-23T09:43:07;97829.19;;;-0.33;60.51
43480;BME280;29067;35.492;-97.520;2024-03-23T09:45:39;97818.09;;;0.88;60.19
43480;BME280;29067;35.492;-97.520;2024-03-23T09:48:09;97813.17;;;0.47;58.82
43480;BME280;29067;35.492;-97.520;2024-03-23T09:50:37;97816.59;;;-1.08;61.50
43480;BME280;29067;35.492;-97.520;2024-03-23T09:53:07;97815.21;;;-0.49;61.67
43480;BME280;29067;35.492;-97.520;2024-03-23T09:55:36;97817.74;;;-0.36;61.61
43480;BME280;29067;35.492;-97.520;2024-03-23T09:58:05;97814.87;;;-0.03;61.19
43480;BME280;29067;35.492;-97.520;2024-03-23T10:00:34;97812.22;;;-0.06;61.89
43480;BME280;29067;35.492;-97.520;2024-03-23T10:03:02;97805.62;;;-0.64;62.12
43480;BME280;29067;35.492;-97.520;2024-03-23T10:05:31;97803.55;;;-0.45;62.75
43480;BME280;29067;35.492;-97.520;2024-03-23T10:07:59;97799.08;;;-1.12;62.69
43480;BME280;29067;35.492;-97.520;2024-03-23T10:10:28;97794.00;;;-0.46;62.37
43480;BME280;29067;35.492;-97.520;2024-03-23T10:12:56;97791.19;;;-0.64;61.97
43480;BME280;29067;35.492;-97.520;2024-03-23T10:15:25;97796.55;;;-1.10;63.85
43480;BME280;29067;35.492;-97.520;2024-03-23T10:17:53;97797.98;;;-0.94;64.02
43480;BME280;29067;35.492;-97.520;2024-03-23T10:20:22;97803.83;;;-0.66;63.29
43480;BME280;29067;35.492;-97.520;2024-03-23T10:22:51;97811.80;;;-2.01;65.20
43480;BME280;29067;35.492;-97.520;2024-03-23T10:25:23;97817.32;;;-1.73;64.83
43480;BME280;29067;35.492;-97.520;2024-03-23T10:27:59;97815.19;;;-0.31;64.73
43480;BME280;29067;35.492;-97.520;2024-03-23T10:30:28;97822.61;;;-0.82;63.20
43480;BME280;29067;35.492;-97.520;2024-03-23T10:33:08;97819.85;;;-0.76;61.58
43480;BME280;29067;35.492;-97.520;2024-03-23T10:35:37;97817.95;;;-0.80;63.75
43480;BME280;29067;35.492;-97.520;2024-03-23T10:38:06;97822.12;;;-0.87;63.93
43480;BME280;29067;35.492;-97.520;2024-03-23T10:40:35;97823.81;;;0.64;62.43
43480;BME280;29067;35.492;-97.520;2024-03-23T10:43:04;97826.02;;;-0.54;62.47
43480;BME280;29067;35.492;-97.520;2024-03-23T10:45:34;97829.33;;;-0.87;62.76
43480;BME280;29067;35.492;-97.520;2024-03-23T10:48:02;97835.29;;;-0.66;63.23
43480;BME280;29067;35.492;-97.520;2024-03-23T10:50:31;97837.77;;;-1.16;63.72
43480;BME280;29067;35.492;-97.520;2024-03-23T10:52:59;97838.07;;;-1.13;62.42
43480;BME280;29067;35.492;-97.520;2024-03-23T10:55:29;97838.07;;;-1.42;62.99
43480;BME280;29067;35.492;-97.520;2024-03-23T10:57:58;97834.64;;;-0.43;62.66
43480;BME280;29067;35.492;-97.520;2024-03-23T11:00:27;97830.34;;;-0.85;62.51
43480;BME280;29067;35.492;-97.520;2024-03-23T11:02:55;97830.96;;;-0.87;62.86
43480;BME280;29067;35.492;-97.520;2024-03-23T11:05:31;97823.40;;;-0.76;62.77
43480;BME280;29067;35.492;-97.520;2024-03-23T11:07:59;97813.74;;;-1.47;63.25
43480;BME280;29067;35.492;-97.520;2024-03-23T11:10:28;97808.46;;;-1.30;63.11
43480;BME280;29067;35.492;-97.520;2024-03-23T11:12:57;97821.00;;;-0.71;63.93
43480;BME280;29067;35.492;-97.520;2024-03-23T11:15:25;97822.23;;;-0.59;63.78
43480;BME280;29067;35.492;-97.520;2024-03-23T11:18:09;97828.10;;;-1.11;63.13
43480;BME280;29067;35.492;-97.520;2024-03-23T11:20:36;97831.48;;;-1.15;62.59
43480;BME280;29067;35.492;-97.520;2024-03-23T11:23:05;97843.92;;;-1.27;64.58
43480;BME280;29067;35.492;-97.520;2024-03-23T11:25:33;97852.18;;;-1.06;64.74
43480;BME280;29067;35.492;-97.520;2024-03-23T11:28:11;97854.92;;;-0.15;63.08
43480;BME280;29067;35.492;-97.520;2024-03-23T11:30:39;97863.62;;;-0.44;62.30
43480;BME280;29067;35.492;-97.520;2024-03-23T11:33:08;97873.37;;;-2.01;64.52
43480;BME280;29067;35.492;-97.520;2024-03-23T11:35:38;97869.29;;;-0.75;63.29
43480;BME280;29067;35.492;-97.520;2024-03-23T11:38:07;97871.40;;;-1.46;62.89
43480;BME280;29067;35.492;-97.520;2024-03-23T11:40:37;97869.53;;;-0.97;63.14
43480;BME280;29067;35.492;-97.520;2024-03-23T11:43:06;97874.01;;;-1.32;62.73
43480;BME280;29067;35.492;-97.520;2024-03-23T11:45:36;97869.23;;;-0.88;64.93
43480;BME280;29067;35.492;-97.520;2024-03-23T11:48:06;97871.88;;;-1.38;63.38
43480;BME280;29067;35.492;-97.520;2024-03-23T11:50:38;97874.59;;;-1.06;63.74
43480;BME280;29067;35.492;-97.520;2024-03-23T11:53:14;97880.83;;;-1.49;64.70
43480;BME280;29067;35.492;-97.520;2024-03-23T11:55:43;97880.22;;;-1.52;63.26
43480;BME280;29067;35.492;-97.520;2024-03-23T11:58:13;97888.13;;;-1.56;63.75
43480;BME280;29067;35.492;-97.520;2024-03-23T12:03:01;97902.70;;;-2.47;63.72
43480;BME280;29067;35.492;-97.520;2024-03-23T12:05:29;97902.09;;;-1.44;62.67
43480;BME280;29067;35.492;-97.520;2024-03-23T12:08:17;97909.63;;;-1.82;63.56
43480;BME280;29067;35.492;-97.520;2024-03-23T12:10:46;97907.47;;;-2.31;62.95
43480;BME280;29067;35.492;-97.520;2024-03-23T12:13:16;97908.98;;;-1.01;63.20
43480;BME280;29067;35.492;-97.520;2024-03-23T12:15:45;97906.72;;;-1.46;62.42
43480;BME280;29067;35.492;-97.520;2024-03-23T12:18:13;97909.22;;;-0.85;61.27
43480;BME280;29067;35.492;-97.520;2024-03-23T12:20:41;97908.70;;;-0.66;61.10
43480;BME280;29067;35.492;-97.520;2024-03-23T12:23:10;97914.48;;;-1.26;61.87
43480;BME280;29067;35.492;-97.520;2024-03-23T12:25:39;97915.58;;;-1.05;61.33
43480;BME280;29067;35.492;-97.520;2024-03-23T12:28:07;97914.80;;;-1.41;61.20
43480;BME280;29067;35.492;-97.520;2024-03-23T12:30:38;97914.97;;;-1.08;60.96
43480;BME280;29067;35.492;-97.520;2024-03-23T12:33:06;97906.33;;;-0.12;60.04
43480;BME280;29067;35.492;-97.520;2024-03-23T12:35:35;97911.95;;;-0.59;61.13
43480;BME280;29067;35.492;-97.520;2024-03-23T12:38:03;97916.84;;;-0.31;60.36
43480;BME280;29067;35.492;-97.520;2024-03-23T12:40:30;97922.58;;;-0.77;62.13
43480;BME280;29067;35.492;-97.520;2024-03-23T12:42:59;97922.20;;;-0.96;61.40
43480;BME280;29067;35.492;-97.520;2024-03-23T12:45:26;97918.14;;;-0.98;64.18
43480;BME280;29067;35.492;-97.520;2024-03-23T12:47:54;97922.66;;;-1.02;62.31
43480;BME280;29067;35.492;-97.520;2024-03-23T12:50:22;97920.65;;;-1.46;62.93
43480;BME280;29067;35.492;-97.520;2024-03-23T12:52:51;97921.99;;;-1.00;63.13
43480;BME280;29067;35.492;-97.520;2024-03-23T12:55:19;97916.82;;;-0.55;62.55
43480;BME280;29067;35.492;-97.520;2024-03-23T12:57:48;97921.77;;;0.41;61.29
43480;BME280;29067;35.492;-97.520;2024-03-23T13:00:16;97933.03;;;-0.90;62.42
43480;BME280;29067;35.492;-97.520;2024-03-23T13:02:45;97936.38;;;-1.34;62.61
43480;BME280;29067;35.492;-97.520;2024-03-23T13:05:13;97937.86;;;-2.04;63.18
43480;BME280;29067;35.492;-97.520;2024-03-23T13:07:41;97938.58;;;-1.29;65.28
43480;BME280;29067;35.492;-97.520;2024-03-23T13:10:09;97937.20;;;-0.94;63.52
43480;BME280;29067;35.492;-97.520;2024-03-23T13:12:37;97935.34;;;-0.04;63.48
43480;BME280;29067;35.492;-97.520;2024-03-23T13:15:06;97934.35;;;-0.09;62.60
43480;BME280;29067;35.492;-97.520;2024-03-23T13:17:34;97940.90;;;-0.85;62.98
43480;BME280;29067;35.492;-97.520;2024-03-23T13:20:02;97943.23;;;-0.77;62.90
43480;BME280;29067;35.492;-97.520;2024-03-23T13:22:31;97940.88;;;-0.31;61.02
43480;BME280;29067;35.492;-97.520;2024-03-23T13:24:58;97940.92;;;-0.79;62.11
43480;BME280;29067;35.492;-97.520;2024-03-23T13:27:26;97938.81;;;-0.62;62.41
43480;BME280;29067;35.492;-97.520;2024-03-23T13:29:54;97942.77;;;-0.90;63.04
43480;BME280;29067;35.492;-97.520;2024-03-23T13:32:23;97943.06;;;0.57;60.66
43480;BME280;29067;35.492;-97.520;2024-03-23T13:34:51;97946.65;;;0.21;60.16
43480;BME280;29067;35.492;-97.520;2024-03-23T13:37:20;97952.98;;;-0.02;61.44
43480;BME280;29067;35.492;-97.520;2024-03-23T13:39:49;97962.04;;;-0.84;60.59
43480;BME280;29067;35.492;-97.520;2024-03-23T13:42:16;97964.20;;;-0.88;62.62
43480;BME280;29067;35.492;-97.520;2024-03-23T13:44:44;97970.24;;;-0.91;63.06
43480;BME280;29067;35.492;-97.520;2024-03-23T13:47:12;97976.26;;;-0.57;63.55